Time;durP1;ratioP1;P1;durP2;ratioP2;P2;SDS_P1;SDS_P2;PMS_P1;PMS_P2;Temp;Humidity;BMP_temperature;BMP_pressure;BME280_temperature;BME280_humidity;BME280_pressure;Samples;Min_cycle;Max_cycle;Signal;HPM_P1;HPM_P2
2023/03/27 00:01:26;;;;;;;;;;;7.00;99.90;;;;;;7349746;19;108496;-94
2023/03/27 00:03:54;;;;;;;;;;;7.00;99.90;;;;;;7350285;19;110660;-93
2023/03/27 00:06:23;;;;;;;;;;;7.00;99.90;;;;;;7353925;19;108501;-94
2023/03/27 00:08:51;;;;;;;;;;;7.00;99.90;;;;;;7357582;19;108606;-92
2023/03/27 00:11:19;;;;;;;;;;;6.90;99.90;;;;;;7360693;19;109968;-93
2023/03/27 00:13:48;;;;;;;;;;;6.90;99.90;;;;;;7354973;19;109688;-93
2023/03/27 00:16:21;;;;;;;;;;;6.90;99.90;;;;;;7350636;19;108227;-95
2023/03/27 00:18:48;;;;;;;;;;;6.90;99.90;;;;;;7353382;19;108278;-94
2023/03/27 00:21:16;;;;;;;;;;;7.00;99.90;;;;;;7349707;19;108405;-93
2023/03/27 00:23:43;;;;;;;;;;;7.00;99.90;;;;;;7347527;19;110689;-93
2023/03/27 00:26:14;;;;;;;;;;;7.00;99.90;;;;;;7347616;19;109398;-93
2023/03/27 00:28:41;;;;;;;;;;;7.00;99.90;;;;;;7364033;19;109247;-93
2023/03/27 00:31:12;;;;;;;;;;;7.00;99.90;;;;;;7383431;19;109068;-92
2023/03/27 00:33:39;;;;;;;;;;;7.00;99.90;;;;;;7387138;19;108235;-92
2023/03/27 00:36:07;;;;;;;;;;;7.00;99.90;;;;;;7381230;19;110023;-93
2023/03/27 00:38:34;;;;;;;;;;;6.90;99.90;;;;;;7376184;19;107804;-93
2023/03/27 00:41:01;;;;;;;;;;;6.90;99.90;;;;;;7381234;19;108446;-93
2023/03/27 00:43:33;;;;;;;;;;;6.90;99.90;;;;;;7381490;19;109371;-92
2023/03/27 00:46:07;;;;;;;;;;;7.00;99.90;;;;;;7366367;19;108552;-93
2023/03/27 00:48:36;;;;;;;;;;;7.00;99.90;;;;;;7360397;19;108980;-93
2023/03/27 00:51:04;;;;;;;;;;;7.00;99.90;;;;;;7358968;19;111504;-92
2023/03/27 00:53:32;;;;;;;;;;;7.00;99.90;;;;;;7353454;19;108563;-92
2023/03/27 00:56:01;;;;;;;;;;;7.00;99.90;;;;;;7363886;19;108872;-92
2023/03/27 00:58:43;;;;;;;;;;;7.00;99.90;;;;;;7348946;19;108299;-92
2023/03/27 01:01:12;;;;;;;;;;;7.00;99.90;;;;;;7350438;19;108600;-91
2023/03/27 01:03:40;;;;;;;;;;;7.00;99.90;;;;;;7352412;19;108392;-92
2023/03/27 01:06:09;;;;;;;;;;;7.10;99.90;;;;;;7353190;19;108474;-92
2023/03/27 01:08:37;;;;;;;;;;;7.10;99.90;;;;;;7352705;19;108296;-92
2023/03/27 01:11:22;;;;;;;;;;;7.10;99.90;;;;;;7353366;19;110170;-92
2023/03/27 01:13:55;;;;;;;;;;;7.10;99.90;;;;;;7350607;19;108288;-92
2023/03/27 01:16:27;;;;;;;;;;;7.10;99.90;;;;;;7346972;19;111047;-92
2023/03/27 01:19:20;;;;;;;;;;;7.10;99.90;;;;;;7355454;19;111579;-92
2023/03/27 01:22:11;;;;;;;;;;;7.10;99.90;;;;;;7353173;19;108970;-92
2023/03/27 01:24:54;;;;;;;;;;;7.10;99.90;;;;;;7349135;19;109514;-92
2023/03/27 01:27:36;;;;;;;;;;;7.10;99.90;;;;;;7354699;19;108229;-92
2023/03/27 01:30:08;;;;;;;;;;;7.10;99.90;;;;;;7350224;19;109324;-92
2023/03/27 01:32:55;;;;;;;;;;;7.10;99.90;;;;;;7350988;19;110734;-92
2023/03/27 01:35:25;;;;;;;;;;;7.10;99.90;;;;;;7350980;19;108403;-93
2023/03/27 01:37:52;;;;;;;;;;;7.10;99.90;;;;;;7352053;19;108292;-93
2023/03/27 01:40:24;;;;;;;;;;;7.00;99.90;;;;;;7355779;19;109388;-93
2023/03/27 01:43:00;;;;;;;;;;;7.00;99.90;;;;;;7349568;19;108488;-94
2023/03/27 01:45:32;;;;;;;;;;;6.90;99.90;;;;;;7351683;19;109633;-92
2023/03/27 01:48:09;;;;;;;;;;;6.80;99.90;;;;;;7351087;19;108584;-93
2023/03/27 01:50:43;;;;;;;;;;;6.90;99.90;;;;;;7349494;19;109583;-94
2023/03/27 01:53:16;;;;;;;;;;;6.90;99.90;;;;;;7351008;19;110149;-93
2023/03/27 01:55:57;;;;;;;;;;;6.80;99.90;;;;;;7351975;19;108283;-93
2023/03/27 01:58:30;;;;;;;;;;;6.90;99.90;;;;;;7351556;19;110652;-94
2023/03/27 02:01:00;;;;;;;;;;;6.80;99.90;;;;;;7351227;19;110719;-94
2023/03/27 02:03:33;;;;;;;;;;;6.70;99.90;;;;;;7354803;19;109217;-94
2023/03/27 02:06:05;;;;;;;;;;;6.70;99.90;;;;;;7347877;19;109740;-94
2023/03/27 02:08:38;;;;;;;;;;;6.80;99.90;;;;;;7348696;19;108291;-93
2023/03/27 02:11:05;;;;;;;;;;;6.80;99.90;;;;;;7351116;19;109432;-93
2023/03/27 02:13:52;;;;;;;;;;;6.90;99.90;;;;;;7348827;19;110218;-94
2023/03/27 02:16:21;;;;;;;;;;;6.80;99.90;;;;;;7350295;19;108205;-94
2023/03/27 02:18:55;;;;;;;;;;;6.90;99.90;;;;;;7350904;19;112262;-93
2023/03/27 02:21:22;;;;;;;;;;;6.90;99.90;;;;;;7352037;19;109443;-94
2023/03/27 02:23:50;;;;;;;;;;;6.90;99.90;;;;;;7349210;19;108583;-93
2023/03/27 02:26:17;;;;;;;;;;;6.90;99.90;;;;;;7351868;19;110762;-93
2023/03/27 02:28:47;;;;;;;;;;;6.90;99.90;;;;;;7351095;19;108664;-93
2023/03/27 02:31:33;;;;;;;;;;;6.80;99.90;;;;;;7349059;19;108993;-93
2023/03/27 02:34:19;;;;;;;;;;;6.70;99.90;;;;;;7350621;19;108989;-92
2023/03/27 02:37:02;;;;;;;;;;;6.70;99.90;;;;;;7348966;19;108471;-92
2023/03/27 02:39:42;;;;;;;;;;;6.60;99.90;;;;;;7347296;19;109099;-93
2023/03/27 02:42:17;;;;;;;;;;;6.40;99.90;;;;;;7345320;19;110153;-93
2023/03/27 02:45:04;;;;;;;;;;;6.40;99.90;;;;;;7346167;19;108467;-92
2023/03/27 02:47:35;;;;;;;;;;;6.30;99.90;;;;;;7345081;19;109399;-93
2023/03/27 02:50:05;;;;;;;;;;;6.30;99.90;;;;;;7352942;19;109684;-93
2023/03/27 02:52:35;;;;;;;;;;;6.30;99.90;;;;;;7346041;19;109088;-93
2023/03/27 02:55:23;;;;;;;;;;;6.40;99.90;;;;;;7347931;19;110543;-92
2023/03/27 02:57:55;;;;;;;;;;;6.40;99.90;;;;;;7343747;19;109649;-93
2023/03/27 03:00:24;;;;;;;;;;;6.40;99.90;;;;;;7344170;19;109450;-93
2023/03/27 03:02:57;;;;;;;;;;;6.40;99.90;;;;;;7345459;19;110659;-92
2023/03/27 03:05:25;;;;;;;;;;;6.40;99.90;;;;;;7343677;19;108348;-92
2023/03/27 03:07:53;;;;;;;;;;;6.40;99.90;;;;;;7343217;19;110641;-93
2023/03/27 03:10:20;;;;;;;;;;;6.50;99.90;;;;;;7347485;19;109399;-93
2023/03/27 03:12:47;;;;;;;;;;;6.50;99.90;;;;;;7351728;19;108374;-93
2023/03/27 03:15:14;;;;;;;;;;;6.50;99.90;;;;;;7344615;19;110178;-93
2023/03/27 03:17:41;;;;;;;;;;;6.50;99.90;;;;;;7343083;19;108399;-95
2023/03/27 03:20:09;;;;;;;;;;;6.60;99.90;;;;;;7342874;19;109523;-93
2023/03/27 03:22:38;;;;;;;;;;;6.60;99.90;;;;;;7344042;19;110082;-93
2023/03/27 03:25:06;;;;;;;;;;;6.50;99.90;;;;;;7344280;19;109448;-92
2023/03/27 03:27:33;;;;;;;;;;;6.50;99.90;;;;;;7347348;19;108411;-93
2023/03/27 03:30:00;;;;;;;;;;;6.50;99.90;;;;;;7344400;19;110442;-93
2023/03/27 03:32:30;;;;;;;;;;;6.50;99.90;;;;;;7346473;19;109514;-93
2023/03/27 03:35:00;;;;;;;;;;;6.40;99.90;;;;;;7352667;19;108317;-93
2023/03/27 03:37:27;;;;;;;;;;;6.30;99.90;;;;;;7343352;19;108928;-93
2023/03/27 03:39:54;;;;;;;;;;;6.30;99.90;;;;;;7345179;19;109512;-93
2023/03/27 03:42:22;;;;;;;;;;;6.20;99.90;;;;;;7343388;19;108287;-93
2023/03/27 03:44:50;;;;;;;;;;;6.20;99.90;;;;;;7341857;19;108807;-92
2023/03/27 03:47:23;;;;;;;;;;;6.20;99.90;;;;;;7343795;19;108589;-93
2023/03/27 03:49:50;;;;;;;;;;;6.20;99.90;;;;;;7339956;19;109935;-92
2023/03/27 03:52:17;;;;;;;;;;;6.30;99.90;;;;;;7350089;19;108687;-93
2023/03/27 03:54:44;;;;;;;;;;;6.30;99.90;;;;;;7355738;19;111126;-92
2023/03/27 03:57:12;;;;;;;;;;;6.30;99.90;;;;;;7350135;19;108205;-93
2023/03/27 03:59:39;;;;;;;;;;;6.40;99.90;;;;;;7356311;19;108947;-92
2023/03/27 04:02:06;;;;;;;;;;;6.40;99.90;;;;;;7363145;19;108230;-93
2023/03/27 04:04:33;;;;;;;;;;;6.40;99.90;;;;;;7363644;19;108472;-93
2023/03/27 04:07:01;;;;;;;;;;;6.40;99.90;;;;;;7370683;19;108336;-93
2023/03/27 04:09:28;;;;;;;;;;;6.30;99.90;;;;;;7370131;19;109286;-92
2023/03/27 04:11:55;;;;;;;;;;;6.20;99.90;;;;;;7375413;19;109062;-93
2023/03/27 04:14:22;;;;;;;;;;;6.20;99.90;;;;;;7373878;19;108524;-92
2023/03/27 04:16:49;;;;;;;;;;;6.20;99.90;;;;;;7375396;19;108163;-91
2023/03/27 04:19:18;;;;;;;;;;;6.10;99.90;;;;;;7372837;19;108330;-92
2023/03/27 04:21:46;;;;;;;;;;;6.10;99.90;;;;;;7354995;19;111754;-90
2023/03/27 04:24:13;;;;;;;;;;;6.00;99.90;;;;;;7356938;19;108332;-91
2023/03/27 04:26:40;;;;;;;;;;;6.00;99.90;;;;;;7353822;19;108763;-91
2023/03/27 04:29:09;;;;;;;;;;;6.00;99.90;;;;;;7371740;19;110466;-93
2023/03/27 04:31:37;;;;;;;;;;;6.00;99.90;;;;;;7375440;19;108792;-89
2023/03/27 04:34:07;;;;;;;;;;;6.00;99.90;;;;;;7374882;19;108502;-91
2023/03/27 04:36:34;;;;;;;;;;;6.00;99.90;;;;;;7372329;19;109906;-91
2023/03/27 04:39:02;;;;;;;;;;;6.00;99.90;;;;;;7379764;19;108153;-90
2023/03/27 04:41:29;;;;;;;;;;;6.00;99.90;;;;;;7376534;19;109705;-92
2023/03/27 04:43:56;;;;;;;;;;;6.10;99.90;;;;;;7373322;19;108547;-92
2023/03/27 04:46:23;;;;;;;;;;;6.10;99.90;;;;;;7374906;19;112052;-92
2023/03/27 04:48:50;;;;;;;;;;;6.10;99.90;;;;;;7368866;19;111469;-91
2023/03/27 04:51:18;;;;;;;;;;;6.10;99.90;;;;;;7372108;19;109097;-92
2023/03/27 04:53:45;;;;;;;;;;;6.20;99.90;;;;;;7371746;19;108428;-92
2023/03/27 04:56:13;;;;;;;;;;;6.20;99.90;;;;;;7372922;19;112718;-91
2023/03/27 04:58:44;;;;;;;;;;;6.20;99.90;;;;;;7371192;19;108680;-93
2023/03/27 05:01:11;;;;;;;;;;;6.20;99.90;;;;;;7378654;19;109959;-91
2023/03/27 05:03:39;;;;;;;;;;;6.20;99.90;;;;;;7370589;19;108702;-91
2023/03/27 05:06:07;;;;;;;;;;;6.20;99.90;;;;;;7372872;19;108452;-92
2023/03/27 05:08:34;;;;;;;;;;;6.00;99.90;;;;;;7373095;19;109109;-91
2023/03/27 05:11:01;;;;;;;;;;;6.00;99.90;;;;;;7374766;19;108852;-92
2023/03/27 05:13:29;;;;;;;;;;;6.00;99.90;;;;;;7373843;19;109394;-91
2023/03/27 05:15:58;;;;;;;;;;;6.00;99.90;;;;;;7363337;19;111746;-91
2023/03/27 05:18:25;;;;;;;;;;;5.90;99.90;;;;;;7364965;19;108720;-92
2023/03/27 05:20:52;;;;;;;;;;;5.90;99.90;;;;;;7368285;19;108009;-91
2023/03/27 05:23:20;;;;;;;;;;;5.90;99.90;;;;;;7380223;19;109125;-92
2023/03/27 05:25:47;;;;;;;;;;;5.90;99.90;;;;;;7372037;19;109339;-92
2023/03/27 05:28:26;;;;;;;;;;;5.90;99.90;;;;;;7368614;19;108673;-92
2023/03/27 05:30:54;;;;;;;;;;;5.90;99.90;;;;;;7368572;19;108450;-91
2023/03/27 05:33:21;;;;;;;;;;;5.90;99.90;;;;;;7366287;19;109815;-92
2023/03/27 05:35:49;;;;;;;;;;;5.90;99.90;;;;;;7372179;19;110310;-91
2023/03/27 05:38:16;;;;;;;;;;;5.90;99.90;;;;;;7370319;19;107993;-90
2023/03/27 05:40:43;;;;;;;;;;;5.90;99.90;;;;;;7369342;19;109648;-92
2023/03/27 05:43:10;;;;;;;;;;;5.80;99.90;;;;;;7368916;19;111766;-90
2023/03/27 05:45:37;;;;;;;;;;;5.80;99.90;;;;;;7372023;19;108473;-91
2023/03/27 05:48:05;;;;;;;;;;;5.80;99.90;;;;;;7365133;19;110830;-91
2023/03/27 05:50:33;;;;;;;;;;;5.90;99.90;;;;;;7363930;19;109831;-90
2023/03/27 05:53:06;;;;;;;;;;;5.90;99.90;;;;;;7359621;19;110241;-89
2023/03/27 05:55:33;;;;;;;;;;;5.90;99.90;;;;;;7366668;19;109747;-88
2023/03/27 05:58:01;;;;;;;;;;;5.80;99.90;;;;;;7365834;19;108330;-90
2023/03/27 06:00:30;;;;;;;;;;;5.80;99.90;;;;;;7372734;19;108315;-92
2023/03/27 06:02:58;;;;;;;;;;;5.80;99.90;;;;;;7373602;19;111149;-91
2023/03/27 06:05:28;;;;;;;;;;;5.80;99.90;;;;;;7380759;19;109533;-93
2023/03/27 06:07:57;;;;;;;;;;;5.80;99.90;;;;;;7372316;19;110465;-93
2023/03/27 06:10:25;;;;;;;;;;;5.80;99.90;;;;;;7372434;19;108142;-94
2023/03/27 06:13:12;;;;;;;;;;;5.80;99.90;;;;;;7348967;19;110462;-94
2023/03/27 06:15:40;;;;;;;;;;;5.90;99.90;;;;;;7350681;19;110189;-94
2023/03/27 06:18:08;;;;;;;;;;;5.90;99.90;;;;;;7349635;19;108283;-95
2023/03/27 06:20:36;;;;;;;;;;;6.00;99.90;;;;;;7348996;19;109599;-95
2023/03/27 06:23:08;;;;;;;;;;;6.00;99.90;;;;;;7348037;19;108937;-95
2023/03/27 06:25:37;;;;;;;;;;;6.00;99.90;;;;;;7350230;19;108388;-95
2023/03/27 06:28:06;;;;;;;;;;;5.90;99.90;;;;;;7354042;19;109115;-95
2023/03/27 06:30:36;;;;;;;;;;;5.90;99.90;;;;;;7346568;19;108302;-94
2023/03/27 06:33:04;;;;;;;;;;;6.00;99.90;;;;;;7349784;19;108114;-96
2023/03/27 06:35:32;;;;;;;;;;;6.10;99.90;;;;;;7348430;19;111349;-94
2023/03/27 06:38:01;;;;;;;;;;;6.10;99.90;;;;;;7349202;19;108501;-93
2023/03/27 06:40:30;;;;;;;;;;;6.10;99.90;;;;;;7350847;19;108937;-93
2023/03/27 06:43:02;;;;;;;;;;;6.10;99.90;;;;;;7347968;19;110777;-94
2023/03/27 06:45:31;;;;;;;;;;;6.10;99.90;;;;;;7348962;19;108161;-93
2023/03/27 06:47:59;;;;;;;;;;;6.10;99.90;;;;;;7344626;19;108550;-93
2023/03/27 06:50:47;;;;;;;;;;;6.00;99.90;;;;;;7352299;19;109315;-95
2023/03/27 06:53:16;;;;;;;;;;;6.00;99.90;;;;;;7343490;19;109472;-94
2023/03/27 06:55:46;;;;;;;;;;;6.00;99.90;;;;;;7343102;19;111615;-94
2023/03/27 06:58:13;;;;;;;;;;;6.00;99.90;;;;;;7346566;19;108854;-95
2023/03/27 07:00:41;;;;;;;;;;;6.00;99.90;;;;;;7349224;19;108605;-94
2023/03/27 07:03:09;;;;;;;;;;;6.10;99.90;;;;;;7347070;19;110372;-92
2023/03/27 07:05:37;;;;;;;;;;;6.10;99.90;;;;;;7348365;19;109848;-93
2023/03/27 07:08:06;;;;;;;;;;;6.20;99.90;;;;;;7345375;19;110783;-94
2023/03/27 07:10:47;;;;;;;;;;;6.30;99.90;;;;;;7348569;19;113439;-92
2023/03/27 07:13:33;;;;;;;;;;;6.30;99.90;;;;;;7356263;19;108365;-94
2023/03/27 07:16:00;;;;;;;;;;;6.40;99.90;;;;;;7347001;19;112886;-95
2023/03/27 07:18:28;;;;;;;;;;;6.50;99.90;;;;;;7352847;19;108338;-93
2023/03/27 07:20:55;;;;;;;;;;;6.60;99.90;;;;;;7349710;19;108216;-94
2023/03/27 07:23:22;;;;;;;;;;;6.60;99.90;;;;;;7348367;19;109147;-93
2023/03/27 07:25:51;;;;;;;;;;;6.60;99.90;;;;;;7347760;19;108339;-94
2023/03/27 07:28:18;;;;;;;;;;;6.60;99.90;;;;;;7376733;19;110210;-94
2023/03/27 07:30:45;;;;;;;;;;;6.70;99.90;;;;;;7379154;19;108663;-94
2023/03/27 07:33:12;;;;;;;;;;;6.80;99.90;;;;;;7378986;19;109742;-95
2023/03/27 07:35:44;;;;;;;;;;;6.80;99.90;;;;;;7381013;19;110242;-94
2023/03/27 07:38:11;;;;;;;;;;;6.90;99.90;;;;;;7376602;19;108185;-93
2023/03/27 07:40:38;;;;;;;;;;;6.90;99.90;;;;;;7373349;19;109626;-94
2023/03/27 07:43:06;;;;;;;;;;;7.00;99.90;;;;;;7363109;19;109301;-94
2023/03/27 07:45:34;;;;;;;;;;;7.00;99.90;;;;;;7344483;19;110273;-94
2023/03/27 07:48:09;;;;;;;;;;;7.10;99.90;;;;;;7347788;19;109385;-93
2023/03/27 07:50:37;;;;;;;;;;;7.10;99.90;;;;;;7350305;19;110190;-93
2023/03/27 07:53:05;;;;;;;;;;;7.10;99.90;;;;;;7346309;19;109952;-93
2023/03/27 07:55:32;;;;;;;;;;;7.10;99.90;;;;;;7350325;19;108944;-94
2023/03/27 07:57:59;;;;;;;;;;;7.10;99.90;;;;;;7345619;19;108492;-94
2023/03/27 08:00:29;;;;;;;;;;;7.20;99.90;;;;;;7345589;19;111374;-94
2023/03/27 08:03:05;;;;;;;;;;;7.20;99.90;;;;;;7345521;19;110171;-95
2023/03/27 08:05:33;;;;;;;;;;;7.30;99.90;;;;;;7352706;19;109308;-93
2023/03/27 08:08:00;;;;;;;;;;;7.20;99.90;;;;;;7353291;19;109397;-92
2023/03/27 08:10:27;;;;;;;;;;;7.20;99.90;;;;;;7352748;19;113021;-92
2023/03/27 08:12:55;;;;;;;;;;;7.10;99.90;;;;;;7353430;19;108446;-94
2023/03/27 08:15:23;;;;;;;;;;;7.30;99.90;;;;;;7352280;19;112151;-94
2023/03/27 08:17:53;;;;;;;;;;;7.30;99.90;;;;;;7359164;19;110208;-93
2023/03/27 08:20:22;;;;;;;;;;;7.40;99.90;;;;;;7351159;19;108905;-94
2023/03/27 08:22:51;;;;;;;;;;;7.60;99.90;;;;;;7354610;19;108791;-93
2023/03/27 08:25:21;;;;;;;;;;;7.70;99.90;;;;;;7352962;19;108275;-93
2023/03/27 08:27:48;;;;;;;;;;;7.90;99.90;;;;;;7351115;19;108867;-93
2023/03/27 08:30:15;;;;;;;;;;;8.10;99.90;;;;;;7346322;19;112960;-92
2023/03/27 08:32:43;;;;;;;;;;;8.10;99.90;;;;;;7349168;19;109135;-94
2023/03/27 08:35:11;;;;;;;;;;;8.00;99.90;;;;;;7348817;19;109196;-93
2023/03/27 08:37:38;;;;;;;;;;;7.90;99.90;;;;;;7345303;19;109103;-90
2023/03/27 08:40:12;;;;;;;;;;;7.50;99.90;;;;;;7352332;19;108423;-90
2023/03/27 08:42:41;;;;;;;;;;;7.10;99.90;;;;;;7345567;19;110107;-90
2023/03/27 08:45:17;;;;;;;;;;;7.00;99.90;;;;;;7348390;19;109113;-91
2023/03/27 08:48:06;;;;;;;;;;;7.00;99.90;;;;;;7347211;19;108358;-91
2023/03/27 08:50:36;;;;;;;;;;;7.00;99.90;;;;;;7346319;19;109059;-91
2023/03/27 08:53:06;;;;;;;;;;;7.10;99.90;;;;;;7342674;19;109458;-91
2023/03/27 08:55:38;;;;;;;;;;;7.10;99.90;;;;;;7346464;19;109493;-90
2023/03/27 08:58:12;;;;;;;;;;;7.10;99.90;;;;;;7344643;19;110784;-90
2023/03/27 09:00:40;;;;;;;;;;;7.20;99.90;;;;;;7340749;19;108816;-91
2023/03/27 09:03:37;;;;;;;;;;;7.30;99.90;;;;;;7349609;19;109121;-89
2023/03/27 09:06:07;;;;;;;;;;;7.40;99.90;;;;;;7340171;19;108586;-89
2023/03/27 09:08:53;;;;;;;;;;;7.40;99.90;;;;;;7341504;19;111138;-87
2023/03/27 09:11:28;;;;;;;;;;;7.40;99.90;;;;;;7340163;19;109340;-86
2023/03/27 09:13:55;;;;;;;;;;;7.60;99.90;;;;;;7339077;19;108635;-87
2023/03/27 09:16:27;;;;;;;;;;;7.80;99.90;;;;;;7341443;19;109100;-87
2023/03/27 09:19:12;;;;;;;;;;;8.00;99.90;;;;;;7339153;19;112937;-86
2023/03/27 09:22:01;;;;;;;;;;;8.20;99.90;;;;;;7343310;19;108850;-86
2023/03/27 09:24:31;;;;;;;;;;;8.40;99.90;;;;;;7341192;19;108540;-86
2023/03/27 09:27:04;;;;;;;;;;;8.60;99.90;;;;;;7348959;19;109071;-87
2023/03/27 09:29:35;;;;;;;;;;;8.70;99.90;;;;;;7340362;19;111115;-87
2023/03/27 09:32:02;;;;;;;;;;;8.70;99.90;;;;;;7342680;19;110361;-87
2023/03/27 09:34:33;;;;;;;;;;;8.80;99.90;;;;;;7342817;19;108793;-88
2023/03/27 09:37:01;;;;;;;;;;;8.80;99.90;;;;;;7344089;19;109287;-87
2023/03/27 09:39:31;;;;;;;;;;;8.80;99.90;;;;;;7339635;19;109122;-87
2023/03/27 09:42:01;;;;;;;;;;;8.80;99.90;;;;;;7340264;19;108376;-86
2023/03/27 09:44:40;;;;;;;;;;;8.90;99.90;;;;;;7341213;19;109527;-86
2023/03/27 09:47:13;;;;;;;;;;;9.00;99.90;;;;;;7341449;19;109957;-86
2023/03/27 09:49:52;;;;;;;;;;;9.00;99.90;;;;;;7345340;19;108700;-86
2023/03/27 09:52:33;;;;;;;;;;;9.10;99.90;;;;;;7342379;19;110336;-86
2023/03/27 09:55:01;;;;;;;;;;;9.10;99.90;;;;;;7343074;19;109247;-88
2023/03/27 09:57:31;;;;;;;;;;;9.00;99.90;;;;;;7338522;19;111426;-89
2023/03/27 10:00:24;;;;;;;;;;;9.00;99.90;;;;;;7343004;19;110325;-90
2023/03/27 10:02:58;;;;;;;;;;;9.10;99.90;;;;;;7339547;19;108511;-88
2023/03/27 10:05:25;;;;;;;;;;;9.30;99.90;;;;;;7342496;19;109796;-87
2023/03/27 10:07:53;;;;;;;;;;;9.40;99.90;;;;;;7338998;19;109995;-89
2023/03/27 10:10:20;;;;;;;;;;;9.40;99.90;;;;;;7345016;19;108476;-90
2023/03/27 10:12:54;;;;;;;;;;;9.40;99.90;;;;;;7340873;19;110292;-90
2023/03/27 10:15:33;;;;;;;;;;;9.30;99.90;;;;;;7337996;19;108336;-89
2023/03/27 10:18:21;;;;;;;;;;;9.40;99.90;;;;;;7341303;19;109127;-92
2023/03/27 10:20:51;;;;;;;;;;;9.60;99.90;;;;;;7338741;19;114246;-91
2023/03/27 10:23:26;;;;;;;;;;;9.60;99.90;;;;;;7342130;19;108952;-93
2023/03/27 10:25:57;;;;;;;;;;;9.60;99.90;;;;;;7340332;19;110901;-93
2023/03/27 10:28:33;;;;;;;;;;;9.50;99.90;;;;;;7339683;19;111148;-91
2023/03/27 10:31:01;;;;;;;;;;;9.50;99.90;;;;;;7343155;19;108517;-92
2023/03/27 10:33:32;;;;;;;;;;;9.30;99.90;;;;;;7357930;19;109007;-89
2023/03/27 10:36:00;;;;;;;;;;;9.10;99.90;;;;;;7349130;19;109477;-91
2023/03/27 10:38:27;;;;;;;;;;;8.90;99.90;;;;;;7352898;19;108452;-92
2023/03/27 10:40:55;;;;;;;;;;;8.80;99.90;;;;;;7353368;19;112441;-92
2023/03/27 10:43:26;;;;;;;;;;;8.80;99.90;;;;;;7352997;19;110594;-93
2023/03/27 10:46:03;;;;;;;;;;;8.90;99.90;;;;;;7353937;19;111712;-92
2023/03/27 10:48:57;;;;;;;;;;;9.10;99.90;;;;;;7353405;19;111887;-92
2023/03/27 10:51:34;;;;;;;;;;;9.20;99.90;;;;;;7355456;19;108320;-90
2023/03/27 10:54:31;;;;;;;;;;;9.30;99.90;;;;;;7352483;19;110875;-92
2023/03/27 10:57:09;;;;;;;;;;;9.60;99.90;;;;;;7356131;19;109491;-90
2023/03/27 10:59:51;;;;;;;;;;;9.60;99.90;;;;;;7347051;19;110606;-92
2023/03/27 11:02:27;;;;;;;;;;;9.40;99.90;;;;;;7345867;19;109610;-92
2023/03/27 11:04:58;;;;;;;;;;;9.10;99.90;;;;;;7345179;19;108610;-91
2023/03/27 11:07:32;;;;;;;;;;;9.00;99.90;;;;;;7345881;19;112232;-91
2023/03/27 11:10:02;;;;;;;;;;;8.90;99.90;;;;;;7344755;19;110532;-90
2023/03/27 11:12:31;;;;;;;;;;;8.90;99.90;;;;;;7344717;19;108639;-89
2023/03/27 11:15:03;;;;;;;;;;;9.00;99.90;;;;;;7343688;19;111141;-91
2023/03/27 11:17:49;;;;;;;;;;;9.10;99.90;;;;;;7339385;19;112081;-92
2023/03/27 11:20:43;;;;;;;;;;;9.00;99.90;;;;;;7345950;19;108457;-91
2023/03/27 11:23:30;;;;;;;;;;;9.10;99.90;;;;;;7339723;19;110502;-91
2023/03/27 11:25:59;;;;;;;;;;;9.40;99.90;;;;;;7344096;19;108720;-91
2023/03/27 11:28:38;;;;;;;;;;;9.60;99.90;;;;;;7372739;19;108219;-91
2023/03/27 11:31:12;;;;;;;;;;;9.60;99.90;;;;;;7373020;19;109737;-91
2023/03/27 11:33:39;;;;;;;;;;;9.50;99.90;;;;;;7373981;19;110289;-92
2023/03/27 11:36:25;;;;;;;;;;;9.50;99.90;;;;;;7374030;19;108008;-91
2023/03/27 11:39:01;;;;;;;;;;;9.40;99.90;;;;;;7375354;19;112031;-92
2023/03/27 11:41:28;;;;;;;;;;;9.40;99.90;;;;;;7371829;19;108044;-91
2023/03/27 11:43:55;;;;;;;;;;;9.20;99.90;;;;;;7380379;19;112313;-90
2023/03/27 11:46:25;;;;;;;;;;;9.20;99.90;;;;;;7372356;19;108785;-90
2023/03/27 11:49:13;;;;;;;;;;;9.30;99.90;;;;;;7360326;19;111617;-91
2023/03/27 11:51:59;;;;;;;;;;;9.50;99.90;;;;;;7358791;19;112341;-93
2023/03/27 11:54:26;;;;;;;;;;;9.80;99.90;;;;;;7350260;19;108396;-90
2023/03/27 11:56:54;;;;;;;;;;;10.00;99.90;;;;;;7347523;19;111011;-90
2023/03/27 11:59:24;;;;;;;;;;;10.30;99.90;;;;;;7347582;19;109716;-90
2023/03/27 12:02:10;;;;;;;;;;;10.50;99.90;;;;;;7347613;19;108648;-88
2023/03/27 12:04:49;;;;;;;;;;;10.70;99.90;;;;;;7350056;19;109049;-90
2023/03/27 12:07:19;;;;;;;;;;;10.60;99.90;;;;;;7350457;19;112961;-89
2023/03/27 12:10:20;;;;;;;;;;;10.20;99.90;;;;;;7351084;19;109474;-89
2023/03/27 12:13:13;;;;;;;;;;;10.00;99.90;;;;;;7346511;19;111429;-88
2023/03/27 12:15:40;;;;;;;;;;;9.80;99.90;;;;;;7350430;19;108403;-91
2023/03/27 12:18:23;;;;;;;;;;;9.90;99.90;;;;;;7349402;19;112672;-92
2023/03/27 12:21:01;;;;;;;;;;;9.80;99.90;;;;;;7347797;19;108507;-91
2023/03/27 12:23:36;;;;;;;;;;;9.80;99.90;;;;;;7351862;19;108431;-90
2023/03/27 12:26:18;;;;;;;;;;;9.80;99.90;;;;;;7350042;19;110007;-91
2023/03/27 12:28:55;;;;;;;;;;;9.80;99.90;;;;;;7353992;19;112761;-90
2023/03/27 12:31:45;;;;;;;;;;;10.00;99.90;;;;;;7349216;19;111124;-89
2023/03/27 12:34:12;;;;;;;;;;;10.10;99.90;;;;;;7349336;19;111475;-92
2023/03/27 12:36:43;;;;;;;;;;;10.10;99.90;;;;;;7353777;19;108644;-92
2023/03/27 12:39:17;;;;;;;;;;;10.10;99.90;;;;;;7349038;19;110126;-91
2023/03/27 12:41:48;;;;;;;;;;;10.30;99.90;;;;;;7349142;19;110167;-92
2023/03/27 12:44:16;;;;;;;;;;;10.50;99.90;;;;;;7349036;19;108941;-92
2023/03/27 12:47:02;;;;;;;;;;;10.90;99.90;;;;;;7347264;19;110526;-89
2023/03/27 12:49:37;;;;;;;;;;;11.10;99.90;;;;;;7344932;19;112907;-91
2023/03/27 12:52:14;;;;;;;;;;;11.40;99.90;;;;;;7351760;19;109517;-91
2023/03/27 12:55:01;;;;;;;;;;;11.80;99.90;;;;;;7347128;19;109094;-90
2023/03/27 12:57:28;;;;;;;;;;;12.10;99.90;;;;;;7344877;19;108643;-89
2023/03/27 12:59:57;;;;;;;;;;;12.00;99.90;;;;;;7343952;19;109414;-92
2023/03/27 13:02:24;;;;;;;;;;;12.00;99.90;;;;;;7344760;19;112189;-92
2023/03/27 13:04:55;;;;;;;;;;;11.70;99.90;;;;;;7344579;19;108999;-90
2023/03/27 13:07:22;;;;;;;;;;;11.50;99.90;;;;;;7345954;19;109153;-90
2023/03/27 13:10:09;;;;;;;;;;;11.30;99.90;;;;;;7346507;19;109669;-90
2023/03/27 13:12:39;;;;;;;;;;;11.20;99.90;;;;;;7346846;19;108401;-91
2023/03/27 13:15:21;;;;;;;;;;;11.20;99.90;;;;;;7350140;19;111306;-91
2023/03/27 13:17:59;;;;;;;;;;;11.20;99.90;;;;;;7343054;19;109883;-91
2023/03/27 13:20:33;;;;;;;;;;;11.40;99.90;;;;;;7344238;19;112064;-91
2023/03/27 13:23:07;;;;;;;;;;;11.40;99.90;;;;;;7346066;19;113046;-93
2023/03/27 13:25:53;;;;;;;;;;;11.40;99.90;;;;;;7343176;19;110701;-91
2023/03/27 13:28:53;;;;;;;;;;;11.30;99.90;;;;;;7347893;19;111396;-91
2023/03/27 13:31:38;;;;;;;;;;;11.10;99.90;;;;;;7343896;19;112779;-90
2023/03/27 13:34:15;;;;;;;;;;;10.90;99.90;;;;;;7343070;19;109519;-91
2023/03/27 13:36:48;;;;;;;;;;;10.90;99.90;;;;;;7343142;19;108554;-92
2023/03/27 13:39:46;;;;;;;;;;;11.10;99.90;;;;;;7349655;19;110438;-90
2023/03/27 13:42:15;;;;;;;;;;;11.10;99.90;;;;;;7342742;19;110739;-91
2023/03/27 13:45:03;;;;;;;;;;;11.30;99.90;;;;;;7343374;19;109084;-90
2023/03/27 13:47:33;;;;;;;;;;;11.40;99.90;;;;;;7342245;19;108304;-89
2023/03/27 13:50:18;;;;;;;;;;;11.50;99.90;;;;;;7342894;19;111895;-92
2023/03/27 13:53:04;;;;;;;;;;;11.40;99.90;;;;;;7341646;19;112598;-91
2023/03/27 13:55:58;;;;;;;;;;;11.40;99.90;;;;;;7340664;19;108532;-89
2023/03/27 13:58:28;;;;;;;;;;;11.20;99.90;;;;;;7342896;19;108796;-91
2023/03/27 14:00:55;;;;;;;;;;;11.10;99.50;;;;;;7336885;19;113036;-89
2023/03/27 14:03:22;;;;;;;;;;;11.10;99.90;;;;;;7345892;19;108773;-88
2023/03/27 14:06:04;;;;;;;;;;;11.10;99.90;;;;;;7338385;19;110357;-90
2023/03/27 14:08:34;;;;;;;;;;;11.00;99.90;;;;;;7342214;19;108445;-91
2023/03/27 14:11:22;;;;;;;;;;;11.10;99.90;;;;;;7343779;19;112039;-90
2023/03/27 14:14:13;;;;;;;;;;;11.20;99.90;;;;;;7341105;19;110141;-91
2023/03/27 14:16:45;;;;;;;;;;;11.30;99.90;;;;;;7342250;19;108337;-90
2023/03/27 14:19:31;;;;;;;;;;;11.50;99.90;;;;;;7342452;19;109112;-89
2023/03/27 14:22:31;;;;;;;;;;;11.80;99.50;;;;;;7340181;19;113806;-88
2023/03/27 14:25:01;;;;;;;;;;;11.90;98.70;;;;;;7340963;19;108496;-90
2023/03/27 14:27:28;;;;;;;;;;;11.90;99.30;;;;;;7346313;19;112253;-89
2023/03/27 14:30:06;;;;;;;;;;;11.90;98.30;;;;;;7343842;19;108652;-89
2023/03/27 14:32:34;;;;;;;;;;;11.70;99.20;;;;;;7341902;19;109223;-91
2023/03/27 14:35:03;;;;;;;;;;;11.70;99.70;;;;;;7341557;19;110604;-91
2023/03/27 14:37:34;;;;;;;;;;;11.70;99.90;;;;;;7338803;19;112050;-90
2023/03/27 14:40:16;;;;;;;;;;;11.60;99.90;;;;;;7340463;19;109579;-89
2023/03/27 14:42:45;;;;;;;;;;;11.60;99.90;;;;;;7340414;19;111038;-89
2023/03/27 14:45:21;;;;;;;;;;;11.70;99.90;;;;;;7344036;19;108793;-90